Valentine, Texas
Current Conditions -  °F | °C
As of 9:15 AM on Friday 31 Oct 2014 (Local Time) from KMRF Reporting Station
Overcast Overcast  
Wind Chill: 55°   Ceiling: 900
Heat Index: 55°   Visibility: 8mi
Dew Point: 52°   Wind: 16mph
Humidity: 88%   Direction: 50°NE
Pressure: 30.4"   Gusts: NA
Location:  30.59°N, 104.5°W
Report Text: KMRF 311415Z AUTO 05014KT 8SM BKN009 OVC016 13/11 A3040 RMK AO1
Loading
Personal Weather Stations






























Interactive Weather Map New forecast layout! Learn more

10-Day Weather Forecast

Advertisements
Track Severe Weather on mobile